createdAt,value
2018-03-15T00:00:50.499Z,4.80
2018-03-15T00:03:23.612Z,4.80
2018-03-15T00:05:51.117Z,5.00
2018-03-15T00:08:18.631Z,5.00
2018-03-15T00:10:46.124Z,5.00
2018-03-15T00:13:13.643Z,4.80
2018-03-15T00:15:41.308Z,4.80
2018-03-15T00:18:08.808Z,4.80
2018-03-15T00:20:36.480Z,4.70
2018-03-15T00:23:04.010Z,4.80
2018-03-15T00:25:31.760Z,4.70
2018-03-15T00:27:59.504Z,4.70
2018-03-15T00:30:27.006Z,4.70
2018-03-15T00:32:54.525Z,4.80
2018-03-15T00:35:22.019Z,4.80
2018-03-15T00:37:50.296Z,4.80
2018-03-15T00:40:18.022Z,4.80
2018-03-15T00:42:45.586Z,4.70
2018-03-15T00:45:13.231Z,4.70
2018-03-15T00:47:40.744Z,4.70
2018-03-15T00:50:08.457Z,4.60
2018-03-15T00:52:35.964Z,4.70
2018-03-15T00:55:03.488Z,4.70
2018-03-15T00:57:31.127Z,4.60
2018-03-15T00:59:58.615Z,4.70
2018-03-15T01:02:26.130Z,4.60
2018-03-15T01:04:53.790Z,4.70
2018-03-15T01:07:21.285Z,4.90
2018-03-15T01:09:48.804Z,4.90
2018-03-15T01:12:16.424Z,4.90
2018-03-15T01:14:43.926Z,4.70
2018-03-15T01:17:11.425Z,4.80
2018-03-15T01:19:39.143Z,4.70
2018-03-15T01:22:06.759Z,4.70
2018-03-15T01:24:35.038Z,4.50
2018-03-15T01:27:02.531Z,4.50
2018-03-15T01:29:30.034Z,4.50
2018-03-15T01:31:57.532Z,4.60
2018-03-15T01:34:25.034Z,4.50
2018-03-15T01:36:52.535Z,4.70
2018-03-15T01:39:20.052Z,4.60
2018-03-15T01:41:47.564Z,4.40
2018-03-15T01:44:15.084Z,4.50
2018-03-15T01:46:42.731Z,4.50
2018-03-15T01:49:10.243Z,4.30
2018-03-15T01:51:37.736Z,4.30
2018-03-15T01:54:05.247Z,4.30
2018-03-15T01:56:32.752Z,4.20
2018-03-15T01:59:00.308Z,4.40
2018-03-15T02:01:27.816Z,4.40
2018-03-15T02:03:55.328Z,4.50
2018-03-15T02:06:22.835Z,4.50
2018-03-15T02:08:51.096Z,4.10
2018-03-15T02:11:18.604Z,4.20
2018-03-15T02:13:46.112Z,4.20
2018-03-15T02:16:14.380Z,4.30
2018-03-15T02:18:42.052Z,4.20
2018-03-15T02:21:10.054Z,4.30
2018-03-15T02:23:37.627Z,4.20
2018-03-15T02:26:05.134Z,4.10
2018-03-15T02:28:32.819Z,4.00
2018-03-15T02:31:00.341Z,4.20
2018-03-15T02:33:27.837Z,4.00
2018-03-15T02:35:55.535Z,4.10
2018-03-15T02:38:23.300Z,3.90
2018-03-15T02:40:51.502Z,3.90
2018-03-15T02:43:19.003Z,3.90
2018-03-15T02:45:46.511Z,4.00
2018-03-15T02:48:14.019Z,4.00
2018-03-15T02:50:41.528Z,3.90
2018-03-15T02:53:09.033Z,3.90
2018-03-15T02:55:36.724Z,3.90
2018-03-15T02:58:04.489Z,4.00
2018-03-15T03:00:31.980Z,4.10
2018-03-15T03:02:59.700Z,4.10
2018-03-15T03:05:27.191Z,3.90
2018-03-15T03:07:54.683Z,3.70
2018-03-15T03:10:22.375Z,3.80
2018-03-15T03:12:49.875Z,3.80
2018-03-15T03:15:17.560Z,3.80
2018-03-15T03:17:45.059Z,3.60
2018-03-15T03:20:12.791Z,3.60
2018-03-15T03:22:40.580Z,3.40
2018-03-15T03:25:08.087Z,3.30
2018-03-15T03:27:35.805Z,3.30
2018-03-15T03:30:03.291Z,3.60
2018-03-15T03:32:31.019Z,3.40
2018-03-15T03:34:58.512Z,3.40
2018-03-15T03:37:26.124Z,3.30
2018-03-15T03:39:53.703Z,3.40
2018-03-15T03:42:21.219Z,3.20
2018-03-15T03:44:48.771Z,3.20
2018-03-15T03:47:16.731Z,3.20
2018-03-15T03:49:44.228Z,3.10
2018-03-15T03:52:11.908Z,3.20
2018-03-15T03:54:39.403Z,3.20
2018-03-15T03:57:06.908Z,3.40
2018-03-15T03:59:34.403Z,3.30
2018-03-15T04:02:02.040Z,3.20
2018-03-15T04:04:29.800Z,3.40
2018-03-15T04:06:57.575Z,3.10
2018-03-15T04:09:25.344Z,3.00
2018-03-15T04:11:53.124Z,2.90
2018-03-15T04:14:20.628Z,3.00
2018-03-15T04:16:48.303Z,2.90
2018-03-15T04:19:15.803Z,3.10
2018-03-15T04:21:43.531Z,3.20
2018-03-15T04:24:11.027Z,3.10
2018-03-15T04:26:38.531Z,3.20
2018-03-15T04:29:06.264Z,3.20
2018-03-15T04:31:33.751Z,3.20
2018-03-15T04:34:01.264Z,3.10
2018-03-15T04:36:28.889Z,3.20
2018-03-15T04:41:30.463Z,3.20
2018-03-15T04:43:58.011Z,3.30
2018-03-15T04:46:25.504Z,3.40
2018-03-15T04:48:53.016Z,3.20
2018-03-15T04:51:20.665Z,3.30
2018-03-15T04:53:48.271Z,3.50
2018-03-15T04:56:15.900Z,3.50
2018-03-15T04:58:43.631Z,3.40
2018-03-15T05:01:11.144Z,3.50
2018-03-15T05:03:38.776Z,3.50
2018-03-15T05:06:06.307Z,3.30
2018-03-15T05:08:33.846Z,3.40
2018-03-15T05:11:01.395Z,3.50
2018-03-15T05:13:29.047Z,3.50
2018-03-15T05:15:56.557Z,3.40
2018-03-15T05:18:24.064Z,3.30
2018-03-15T05:20:51.685Z,3.30
2018-03-15T05:23:19.204Z,3.30
2018-03-15T05:25:46.923Z,3.20
2018-03-15T05:28:14.419Z,3.30
2018-03-15T05:30:41.927Z,3.60
2018-03-15T05:33:09.474Z,3.70
2018-03-15T05:35:36.987Z,3.70
2018-03-15T05:38:04.483Z,3.80
2018-03-15T05:40:31.990Z,3.70
2018-03-15T05:42:59.704Z,3.50
2018-03-15T05:45:27.215Z,3.60
2018-03-15T05:47:54.718Z,3.70
2018-03-15T05:50:22.240Z,3.70
2018-03-15T05:52:50.528Z,3.60
2018-03-15T05:55:18.231Z,3.60
2018-03-15T05:57:45.732Z,3.70
2018-03-15T06:00:13.440Z,3.60
2018-03-15T06:02:41.226Z,3.50
2018-03-15T06:05:08.736Z,3.70
2018-03-15T06:07:36.356Z,3.50
2018-03-15T06:10:03.875Z,3.60
2018-03-15T06:12:31.687Z,3.60
2018-03-15T06:14:59.172Z,3.70
2018-03-15T06:17:26.720Z,3.70
2018-03-15T06:19:55.284Z,3.70
2018-03-15T06:22:22.898Z,3.70
2018-03-15T06:24:50.443Z,3.60
2018-03-15T06:27:17.963Z,3.70
2018-03-15T06:29:45.672Z,3.70
2018-03-15T06:32:13.343Z,3.60
2018-03-15T06:34:40.848Z,3.50
2018-03-15T06:37:08.380Z,3.60
2018-03-15T06:39:35.884Z,3.40
2018-03-15T06:42:03.391Z,3.50
2018-03-15T06:44:30.891Z,3.50
2018-03-15T06:46:59.375Z,3.70
2018-03-15T06:49:26.876Z,3.70
2018-03-15T06:51:54.588Z,3.70
2018-03-15T06:54:22.855Z,6.00
2018-03-15T06:56:50.368Z,6.00
2018-03-15T06:59:17.904Z,6.40
2018-03-15T07:01:45.705Z,6.60
2018-03-15T07:04:13.243Z,6.90
2018-03-15T07:06:40.753Z,6.40
2018-03-15T07:09:08.245Z,6.30
2018-03-15T07:11:36.550Z,5.80
2018-03-15T07:14:04.055Z,6.40
2018-03-15T07:16:32.604Z,5.20
2018-03-15T07:19:00.096Z,5.10
2018-03-15T07:21:28.439Z,4.70
2018-03-15T07:23:55.920Z,4.50
2018-03-15T07:26:23.420Z,4.50
2018-03-15T07:28:50.915Z,4.40
2018-03-15T07:31:19.171Z,4.30
2018-03-15T07:33:46.665Z,4.20
2018-03-15T07:36:14.199Z,4.30
2018-03-15T07:38:41.723Z,4.20
2018-03-15T07:41:09.296Z,4.20
2018-03-15T07:43:36.813Z,4.30
2018-03-15T07:46:04.498Z,4.30
2018-03-15T07:48:31.987Z,4.20
2018-03-15T07:50:59.491Z,4.20
2018-03-15T07:53:27.169Z,4.20
2018-03-15T07:55:54.671Z,4.10
2018-03-15T07:58:22.170Z,4.20
2018-03-15T08:00:49.677Z,4.20
2018-03-15T08:03:17.172Z,4.40
2018-03-15T08:05:45.428Z,5.00
2018-03-15T08:08:13.700Z,5.00
2018-03-15T08:10:41.200Z,5.80
2018-03-15T08:13:08.728Z,6.80
2018-03-15T08:15:36.259Z,8.10
2018-03-15T08:18:03.796Z,7.00
2018-03-15T08:20:31.295Z,6.20
2018-03-15T08:22:58.831Z,5.80
2018-03-15T08:25:26.323Z,5.60
2018-03-15T08:27:53.870Z,5.40
2018-03-15T08:30:21.359Z,5.30
2018-03-15T08:32:48.968Z,5.30
2018-03-15T08:35:16.480Z,5.40
2018-03-15T08:37:43.979Z,5.50
2018-03-15T08:40:11.638Z,5.50
2018-03-15T08:42:39.137Z,5.40
2018-03-15T08:45:06.864Z,5.30
2018-03-15T08:47:34.468Z,5.20
2018-03-15T08:50:02.881Z,5.40
2018-03-15T08:52:30.456Z,5.30
2018-03-15T08:54:57.964Z,5.40
2018-03-15T08:57:25.760Z,5.60
2018-03-15T08:59:53.257Z,5.50
2018-03-15T09:02:20.756Z,5.40
2018-03-15T09:04:48.401Z,5.50
2018-03-15T09:07:16.123Z,5.60
2018-03-15T09:09:43.632Z,5.70
2018-03-15T09:12:11.151Z,5.50
2018-03-15T09:14:38.771Z,5.30
2018-03-15T09:17:06.269Z,5.30
2018-03-15T09:19:33.767Z,5.20
2018-03-15T09:22:01.480Z,5.40
2018-03-15T09:24:28.971Z,5.50
2018-03-15T09:26:56.660Z,5.50
2018-03-15T09:29:24.161Z,5.50
2018-03-15T09:31:51.655Z,5.50
2018-03-15T09:34:19.159Z,5.50
2018-03-15T09:36:46.663Z,5.60
2018-03-15T09:39:15.199Z,5.60
2018-03-15T09:41:42.704Z,5.60
2018-03-15T09:44:10.228Z,5.70
2018-03-15T09:46:37.731Z,5.80
2018-03-15T09:49:05.991Z,5.90
2018-03-15T09:51:33.496Z,5.90
2018-03-15T09:54:01.000Z,5.70
2018-03-15T09:56:28.631Z,5.70
2018-03-15T09:58:56.393Z,5.90
2018-03-15T10:01:23.896Z,5.70
2018-03-15T10:03:51.427Z,5.50
2018-03-15T10:06:19.037Z,5.70
2018-03-15T10:08:46.833Z,5.60
2018-03-15T10:11:14.336Z,5.60
2018-03-15T10:13:42.561Z,5.70
2018-03-15T10:16:10.239Z,5.70
2018-03-15T10:18:37.769Z,5.70
2018-03-15T10:21:05.280Z,5.60
2018-03-15T10:23:32.800Z,5.60
2018-03-15T10:26:00.308Z,5.80
2018-03-15T10:28:27.967Z,5.80
2018-03-15T10:30:56.352Z,5.70
2018-03-15T10:33:29.427Z,5.70
2018-03-15T10:35:56.936Z,5.70
2018-03-15T10:38:24.437Z,5.70
2018-03-15T10:40:52.711Z,5.60
2018-03-15T10:43:20.395Z,5.50
2018-03-15T10:45:47.904Z,5.50
2018-03-15T10:48:15.412Z,5.40
2018-03-15T10:50:42.919Z,5.30
2018-03-15T10:53:10.563Z,5.30
2018-03-15T10:55:38.264Z,5.20
2018-03-15T10:58:05.763Z,5.10
2018-03-15T11:00:38.989Z,5.20
2018-03-15T11:03:12.203Z,5.20
2018-03-15T11:05:46.268Z,5.40
2018-03-15T11:08:19.581Z,5.40
2018-03-15T11:10:47.088Z,5.50
2018-03-15T11:13:14.805Z,5.60
2018-03-15T11:15:42.511Z,5.60
2018-03-15T11:18:11.188Z,5.60
2018-03-15T11:20:38.720Z,5.70
2018-03-15T11:23:06.337Z,5.60
2018-03-15T11:25:33.919Z,5.70
2018-03-15T11:28:01.424Z,5.80
2018-03-15T11:30:28.928Z,5.80
2018-03-15T11:32:56.562Z,5.70
2018-03-15T11:35:24.797Z,5.60
2018-03-15T11:37:52.303Z,5.50
2018-03-15T11:40:19.799Z,4.80
2018-03-15T11:42:47.316Z,5.40
2018-03-15T11:45:14.813Z,5.30
2018-03-15T11:47:42.323Z,5.30
2018-03-15T11:50:09.995Z,5.30
2018-03-15T11:52:37.789Z,5.40
2018-03-15T11:55:05.655Z,5.30
2018-03-15T11:57:33.321Z,5.20
2018-03-15T12:00:01.072Z,5.20
2018-03-15T12:02:28.843Z,5.20
2018-03-15T12:04:56.335Z,4.90
2018-03-15T12:07:23.846Z,4.80
2018-03-15T12:09:51.343Z,4.80
2018-03-15T12:12:18.989Z,4.80
2018-03-15T12:14:46.739Z,4.90
2018-03-15T12:17:14.287Z,4.80
2018-03-15T12:19:41.975Z,4.80
2018-03-15T12:22:09.487Z,4.70
2018-03-15T12:24:37.172Z,4.70
2018-03-15T12:27:04.731Z,4.70
2018-03-15T12:29:32.244Z,4.70
2018-03-15T12:32:00.506Z,4.70
2018-03-15T12:34:28.202Z,4.70
2018-03-15T12:36:56.348Z,4.80
2018-03-15T12:39:24.068Z,4.70
2018-03-15T12:41:54.296Z,4.70
2018-03-15T12:44:21.927Z,4.80
2018-03-15T12:46:49.512Z,4.70
2018-03-15T12:49:17.024Z,4.80
2018-03-15T12:51:44.683Z,4.80
2018-03-15T12:54:12.191Z,4.70
2018-03-15T12:56:39.947Z,4.80
2018-03-15T12:59:07.457Z,4.70
2018-03-15T13:01:35.143Z,4.80
2018-03-15T13:04:02.924Z,4.80
2018-03-15T13:06:30.708Z,4.40
2018-03-15T13:08:58.456Z,4.20
2018-03-15T13:11:25.957Z,4.20
2018-03-15T13:13:53.472Z,4.10
2018-03-15T13:16:20.976Z,4.30
2018-03-15T13:18:49.675Z,4.30
2018-03-15T13:21:17.277Z,4.30
2018-03-15T13:23:44.789Z,4.30
2018-03-15T13:26:12.292Z,4.30
2018-03-15T13:28:40.972Z,4.20
2018-03-15T13:31:08.520Z,4.10
2018-03-15T13:33:36.095Z,4.10
2018-03-15T13:36:03.814Z,4.20
2018-03-15T13:38:31.308Z,4.10
2018-03-15T13:40:58.815Z,4.10
2018-03-15T13:43:26.531Z,4.00
2018-03-15T13:45:54.032Z,4.10
2018-03-15T13:48:21.931Z,4.10
2018-03-15T13:50:49.485Z,4.20
2018-03-15T13:53:17.291Z,4.20
2018-03-15T13:55:45.040Z,4.10
2018-03-15T13:58:12.814Z,4.20
2018-03-15T14:00:40.315Z,4.20
2018-03-15T14:03:07.825Z,4.10
2018-03-15T14:05:35.337Z,4.00
2018-03-15T14:08:02.843Z,3.90
2018-03-15T14:10:30.359Z,4.10
2018-03-15T14:12:57.860Z,4.10
2018-03-15T14:15:25.612Z,4.00
2018-03-15T14:17:53.391Z,4.00
2018-03-15T14:20:22.417Z,4.10
2018-03-15T14:22:50.696Z,4.10
2018-03-15T14:25:18.208Z,4.10
2018-03-15T14:27:45.712Z,4.10
2018-03-15T14:30:13.745Z,4.20
2018-03-15T14:32:41.255Z,4.20
2018-03-15T14:35:08.931Z,4.10
2018-03-15T14:37:36.431Z,4.10
2018-03-15T14:40:03.948Z,4.30
2018-03-15T14:42:31.631Z,4.20
2018-03-15T14:44:59.395Z,4.10
2018-03-15T14:47:26.907Z,4.20
2018-03-15T14:49:54.412Z,4.30
2018-03-15T14:52:22.686Z,4.20
2018-03-15T14:54:50.299Z,4.30
2018-03-15T14:57:17.808Z,4.40
2018-03-15T14:59:45.324Z,4.30
2018-03-15T15:02:12.872Z,5.00
2018-03-15T15:04:40.601Z,5.10
2018-03-15T15:07:08.349Z,4.90
2018-03-15T15:09:35.860Z,4.70
2018-03-15T15:12:03.367Z,4.60
2018-03-15T15:14:30.937Z,4.70
2018-03-15T15:16:58.412Z,4.60
2018-03-15T15:19:25.940Z,4.60
2018-03-15T15:21:53.695Z,4.60
2018-03-15T15:24:21.193Z,4.60
2018-03-15T15:26:48.712Z,4.80
2018-03-15T15:29:16.351Z,4.70
2018-03-15T15:31:43.858Z,4.70
2018-03-15T15:34:11.465Z,4.70
2018-03-15T15:36:38.980Z,4.50
2018-03-15T15:39:06.480Z,4.60
2018-03-15T15:41:33.988Z,4.70
2018-03-15T15:44:01.711Z,4.60
2018-03-15T15:46:29.219Z,4.50
2018-03-15T15:48:56.727Z,4.70
2018-03-15T15:51:24.239Z,4.80
2018-03-15T15:53:52.514Z,4.80
2018-03-15T15:56:20.243Z,4.80
2018-03-15T15:58:48.038Z,5.00
2018-03-15T16:01:15.777Z,4.90
2018-03-15T16:03:43.277Z,4.90
2018-03-15T16:06:10.783Z,4.70
2018-03-15T16:08:38.308Z,4.70
2018-03-15T16:11:05.792Z,4.80
2018-03-15T16:13:33.328Z,4.80
2018-03-15T16:16:00.843Z,4.80
2018-03-15T16:18:28.357Z,4.70
2018-03-15T16:20:55.855Z,4.80
2018-03-15T16:23:23.375Z,4.70
2018-03-15T16:25:50.947Z,4.70
2018-03-15T16:28:18.471Z,4.70
2018-03-15T16:30:46.139Z,4.60
2018-03-15T16:33:13.929Z,4.60
2018-03-15T16:35:41.434Z,4.70
2018-03-15T16:38:09.151Z,4.60
2018-03-15T16:40:36.924Z,4.60
2018-03-15T16:43:04.686Z,4.50
2018-03-15T16:45:32.336Z,4.40
2018-03-15T16:47:59.868Z,4.40
2018-03-15T16:50:27.368Z,4.50
2018-03-15T16:52:54.888Z,4.60
2018-03-15T16:55:22.395Z,4.20
2018-03-15T16:57:49.921Z,4.20
2018-03-15T17:00:17.423Z,4.30
2018-03-15T17:02:44.955Z,4.20
2018-03-15T17:05:12.487Z,4.00
2018-03-15T17:07:40.176Z,4.10
2018-03-15T17:10:07.929Z,5.30
2018-03-15T17:12:35.774Z,6.30
2018-03-15T17:15:03.984Z,6.40
2018-03-15T17:17:31.510Z,6.40
2018-03-15T17:19:59.629Z,6.70
2018-03-15T17:22:27.143Z,6.50
2018-03-15T17:24:54.649Z,6.30
2018-03-15T17:27:22.907Z,7.10
2018-03-15T17:29:50.465Z,7.10
2018-03-15T17:32:18.132Z,7.10
2018-03-15T17:34:45.842Z,7.20
2018-03-15T17:37:13.371Z,7.10
2018-03-15T17:39:41.072Z,6.30
2018-03-15T17:42:08.566Z,5.70
2018-03-15T17:44:36.089Z,5.40
2018-03-15T17:47:03.601Z,5.00
2018-03-15T17:49:31.880Z,4.50
2018-03-15T17:51:59.384Z,4.50
2018-03-15T17:54:27.067Z,4.30
2018-03-15T17:56:54.571Z,4.40
2018-03-15T17:59:23.040Z,4.40
2018-03-15T18:01:51.750Z,4.30
2018-03-15T18:04:19.256Z,4.30
2018-03-15T18:06:46.764Z,4.00
2018-03-15T18:09:14.576Z,4.10
2018-03-15T18:11:42.088Z,4.00
2018-03-15T18:14:09.600Z,4.10
2018-03-15T18:16:37.257Z,4.20
2018-03-15T18:19:10.485Z,4.30
2018-03-15T18:21:37.993Z,4.20
2018-03-15T18:24:05.510Z,4.10
2018-03-15T18:26:33.010Z,4.20
2018-03-15T18:29:00.679Z,4.30
2018-03-15T18:31:28.436Z,4.30
2018-03-15T18:33:55.928Z,4.30
2018-03-15T18:36:23.440Z,2.30
2018-03-15T18:38:50.996Z,4.00
2018-03-15T18:41:18.523Z,4.20
2018-03-15T18:43:46.008Z,4.10
2018-03-15T18:46:13.511Z,4.20
2018-03-15T18:48:41.157Z,4.20
2018-03-15T18:51:08.694Z,4.20
2018-03-15T18:53:36.185Z,4.10
2018-03-15T18:56:03.692Z,4.20
2018-03-15T18:58:31.815Z,4.20
2018-03-15T19:01:00.091Z,4.20
2018-03-15T19:03:27.818Z,4.20
2018-03-15T19:05:55.315Z,4.20
2018-03-15T19:08:23.008Z,4.20
2018-03-15T19:10:50.519Z,4.50
2018-03-15T19:13:18.266Z,4.50
2018-03-15T19:15:46.015Z,4.30
2018-03-15T19:18:13.524Z,4.40
2018-03-15T19:20:41.238Z,4.20
2018-03-15T19:23:09.004Z,4.10
2018-03-15T19:25:36.519Z,4.00
2018-03-15T19:28:04.222Z,4.00
2018-03-15T19:30:31.737Z,4.00
2018-03-15T19:32:59.234Z,3.90
2018-03-15T19:35:26.736Z,3.80
2018-03-15T19:37:55.000Z,3.90
2018-03-15T19:40:22.688Z,3.90
2018-03-15T19:42:50.195Z,4.00
2018-03-15T19:45:17.694Z,3.80
2018-03-15T19:47:45.324Z,4.00
2018-03-15T19:50:12.820Z,3.80
2018-03-15T19:52:40.319Z,3.80
2018-03-15T19:55:07.824Z,3.70
2018-03-15T19:57:36.091Z,3.80
2018-03-15T20:00:03.602Z,3.60
2018-03-15T20:02:31.103Z,3.60
2018-03-15T20:04:58.832Z,3.60
2018-03-15T20:07:26.337Z,3.60
2018-03-15T20:09:53.834Z,3.50
2018-03-15T20:12:21.330Z,3.50
2018-03-15T20:14:49.759Z,4.10
2018-03-15T20:17:17.263Z,3.90
2018-03-15T20:19:44.752Z,3.80
2018-03-15T20:22:12.266Z,3.90
2018-03-15T20:24:39.760Z,3.80
2018-03-15T20:27:07.421Z,3.90
2018-03-15T20:29:34.917Z,3.50
2018-03-15T20:32:02.840Z,3.40
2018-03-15T20:34:31.095Z,3.40
2018-03-15T20:36:58.827Z,3.30
2018-03-15T20:39:31.959Z,3.40
2018-03-15T20:42:00.227Z,3.50
2018-03-15T20:44:27.943Z,3.40
2018-03-15T20:47:01.183Z,3.30
2018-03-15T20:49:28.655Z,3.50
2018-03-15T20:51:56.171Z,3.50
2018-03-15T20:54:23.671Z,3.40
2018-03-15T20:56:51.384Z,3.40
2018-03-15T20:59:18.892Z,3.40
2018-03-15T21:01:47.221Z,3.30
2018-03-15T21:04:14.724Z,3.40
2018-03-15T21:06:42.682Z,5.10
2018-03-15T21:09:10.207Z,5.30
2018-03-15T21:11:37.704Z,5.50
2018-03-15T21:14:05.540Z,5.80
2018-03-15T21:16:33.043Z,6.00
2018-03-15T21:19:00.658Z,5.80
2018-03-15T21:21:28.416Z,5.00
2018-03-15T21:23:55.919Z,4.10
2018-03-15T21:26:23.421Z,3.80
2018-03-15T21:28:50.919Z,3.50
2018-03-15T21:31:19.309Z,3.40
2018-03-15T21:33:50.354Z,3.00
2018-03-15T21:36:17.891Z,3.00
2018-03-15T21:38:45.371Z,3.00
2018-03-15T21:41:12.896Z,3.00
2018-03-15T21:43:40.403Z,3.00
2018-03-15T21:46:07.895Z,2.90
2018-03-15T21:48:35.647Z,3.10
2018-03-15T21:51:03.459Z,3.00
2018-03-15T21:53:30.979Z,2.70
2018-03-15T21:55:58.627Z,2.70
2018-03-15T21:58:26.953Z,2.90
2018-03-15T22:00:54.444Z,2.90
2018-03-15T22:03:21.940Z,2.80
2018-03-15T22:05:49.480Z,2.80
2018-03-15T22:08:16.975Z,2.80
2018-03-15T22:10:45.248Z,2.80
2018-03-15T22:13:12.765Z,2.80
2018-03-15T22:15:40.426Z,2.80
2018-03-15T22:18:07.925Z,2.80
2018-03-15T22:20:35.427Z,2.80
2018-03-15T22:23:02.923Z,3.00
2018-03-15T22:25:30.447Z,3.00
2018-03-15T22:27:57.939Z,2.80
2018-03-15T22:30:25.448Z,2.90
2018-03-15T22:32:53.245Z,3.00
2018-03-15T22:35:21.004Z,3.20
2018-03-15T22:37:48.499Z,3.20
2018-03-15T22:40:16.224Z,3.10
2018-03-15T22:42:43.726Z,3.10
2018-03-15T22:45:11.232Z,3.00
2018-03-15T22:47:38.903Z,3.00
2018-03-15T22:50:06.424Z,3.00
2018-03-15T22:52:33.919Z,3.10
2018-03-15T22:55:01.547Z,3.00
2018-03-15T22:57:29.088Z,3.00
2018-03-15T22:59:56.795Z,2.90
2018-03-15T23:02:24.307Z,2.90
2018-03-15T23:04:51.811Z,3.00
2018-03-15T23:07:19.316Z,2.90
2018-03-15T23:09:47.583Z,2.90
2018-03-15T23:12:15.115Z,2.90
2018-03-15T23:14:42.735Z,3.00
2018-03-15T23:17:10.223Z,2.80
2018-03-15T23:19:37.726Z,2.80
2018-03-15T23:22:06.271Z,2.70
2018-03-15T23:24:33.819Z,2.80
2018-03-15T23:27:01.585Z,2.90
2018-03-15T23:29:29.086Z,2.90
2018-03-15T23:31:56.739Z,2.90
2018-03-15T23:34:24.252Z,2.90
2018-03-15T23:36:51.752Z,3.00
2018-03-15T23:39:19.448Z,2.90
2018-03-15T23:41:46.951Z,2.80
2018-03-15T23:44:14.458Z,2.70
2018-03-15T23:46:42.164Z,2.60
2018-03-15T23:49:09.924Z,2.50
2018-03-15T23:51:37.436Z,2.60
2018-03-15T23:54:05.135Z,2.70
2018-03-15T23:56:32.654Z,2.70
2018-03-15T23:59:00.164Z,2.80
